KMEM Airport Information

Runway Information
Runway 09 Length 8946 ft width 150 ft
Elevation 253 ft Threshold ft Heading 92
Runway 27 Length 8946 ft Width 150 ft
Elevation 292 ft Threshold ft Heading 272
Runway 18C Length 11120 ft width 150 ft
Elevation 271 ft Threshold ft Heading 179
Runway 36C Length 11120 ft Width 150 ft
Elevation 341 ft Threshold ft Heading 359
Runway 18R Length 9320 ft width 150 ft
Elevation 288 ft Threshold ft Heading 179
Runway 36L Length 9320 ft Width 150 ft
Elevation 321 ft Threshold ft Heading 359
Runway 18L Length 9000 ft width 150 ft
Elevation 278 ft Threshold ft Heading 179
Runway 36R Length 9000 ft Width 150 ft
Elevation 335 ft Threshold ft Heading 359
Airport Frequencies
Type APP Name APP Frequency 33.83 MHZ
Type APP Name APP Frequency 119.1 MHZ
Type ATIS Name ATIS Frequency 127.75 MHZ
Type CLD Name CLNC DEL Frequency 125.2 MHZ
Type DEP Name DEP Frequency 124.15 MHZ
Type GND Name GND Frequency 121.65 MHZ
Type POST Name ANG COMD P Frequency 138.95 MHZ
Type RDO Name JACKSON RD Frequency 122.2 MHZ
Type TWR Name TWR Frequency 118.3 MHZ
Type UNIC Name UNICOM Frequency 122.95 MHZ
Airport Navaids
Type NDB Name Elvis Frequency 287 KHZ
Type VORTAC Name Memphis Frequency 117500 KHZ
Airport Weather Information & NOTAM
ADDS - METARS form results

(0307 UTC 03 July 2022)
Data provider http://aviationweather.gov/metar/data/
 
METAR text: KMEM 030254Z 19005KT 10SM FEW070 SCT090 27/23 A2999 RMK AO2 RAB08E46 SLP152 P0005 60005 T02670233 51016
Conditions at: KMEM (MEMPHIS , TN, US) observed 0254 UTC 03 July 2022
Temperature: 26.7°C (80°F)
Dewpoint: 23.3°C (74°F) [RH = 82%]
Pressure (altimeter): 29.99 inches Hg (1015.7 mb)
[Sea-level pressure: 1015.2 mb]
Winds: from the S (190 degrees) at 6 MPH (5 knots; 2.6 m/s)
Visibility: 10 or more miles (16+ km)
Ceiling: at least 12,000 feet AGL
Clouds: few clouds at 7000 feet AGL
scattered clouds at 9000 feet AGL
Weather: no significant weather observed at this time

METAR text: KMEM 030229Z 20008KT 3SM -RA SCT016 BKN042 OVC070 27/23 A2999 RMK AO2 RAB08 P0005 T02670233
Conditions at: KMEM (MEMPHIS , TN, US) observed 0229 UTC 03 July 2022
Temperature: 26.7°C (80°F)
Dewpoint: 23.3°C (74°F) [RH = 82%]
Pressure (altimeter): 29.99 inches Hg (1015.7 mb)
Winds: from the SSW (200 degrees) at 9 MPH (8 knots; 4.1 m/s)
Visibility: 3 miles ( 5 km)
Ceiling: 4200 feet AGL
Clouds: scattered clouds at 1600 feet AGL
broken clouds at 4200 feet AGL
overcast cloud deck at 7000 feet AGL
Weather: -RA  (light rain)

METAR text: KMEM 030215Z 19008KT 1 3/4SM RA SCT012 BKN042 OVC050 27/23 A2999 RMK AO2 VIS 1V5 RAB08 P0001 T02720233
Conditions at: KMEM (MEMPHIS , TN, US) observed 0215 UTC 03 July 2022
Temperature: 27.2°C (81°F)
Dewpoint: 23.3°C (74°F) [RH = 79%]
Pressure (altimeter): 29.99 inches Hg (1015.7 mb)
Winds: from the S (190 degrees) at 9 MPH (8 knots; 4.1 m/s)
Visibility: 1.75 miles (2.82 km)
Ceiling: 4200 feet AGL
Clouds: scattered clouds at 1200 feet AGL
broken clouds at 4200 feet AGL
overcast cloud deck at 5000 feet AGL
Weather: RA  (moderate rain)

Forecast for: KMEM (MEMPHIS , TN, US)
Text: KMEM 030304Z 0303/0406 19005KT P6SM SCT040 BKN250
Forecast period: 0300 to 1500 UTC 03 July 2022
Forecast type: FROM: standard forecast or significant change
Winds: from the S (190 degrees) at 6 MPH (5 knots; 2.6 m/s)
Visibility: 6 or more miles (10+ km)
Ceiling: 25000 feet AGL
Clouds: scattered clouds at 4000 feet AGL
broken clouds at 25000 feet AGL
Weather: no significant weather forecast for this period
Text: FM031500 20008KT P6SM VCSH SCT030 OVC060
Forecast period: 1500 UTC 03 July 2022 to 0300 UTC 04 July 2022
Forecast type: FROM: standard forecast or significant change
Winds: from the SSW (200 degrees) at 9 MPH (8 knots; 4.1 m/s)
Visibility: 6 or more miles (10+ km)
Ceiling: 6000 feet AGL
Clouds: scattered clouds at 3000 feet AGL
overcast cloud deck at 6000 feet AGL
Weather: VCSH  (showers in vicinity)
Text: FM040300 17005KT P6SM BKN250
Forecast period: 0300 to 0600 UTC 04 July 2022
Forecast type: FROM: standard forecast or significant change
Winds: from the S (170 degrees) at 6 MPH (5 knots; 2.6 m/s)
Visibility: 6 or more miles (10+ km)
Ceiling: 25000 feet AGL
Clouds: broken clouds at 25000 feet AGL
Weather: no significant weather forecast for this period